createdAt,value
2019-01-18T00:00:01.201Z,74.10
2019-01-18T00:01:05.406Z,74.05
2019-01-18T00:02:09.572Z,73.94
2019-01-18T00:03:13.726Z,73.14
2019-01-18T00:04:17.778Z,73.47
2019-01-18T00:05:21.912Z,72.78
2019-01-18T00:06:26.129Z,73.05
2019-01-18T00:07:30.211Z,73.67
2019-01-18T00:08:34.442Z,73.01
2019-01-18T00:09:38.606Z,72.98
2019-01-18T00:10:42.765Z,72.94
2019-01-18T00:11:46.811Z,73.14
2019-01-18T00:12:51.026Z,72.92
2019-01-18T00:13:55.168Z,73.09
2019-01-18T00:14:59.222Z,73.54
2019-01-18T00:16:03.324Z,73.70
2019-01-18T00:17:07.511Z,73.35
2019-01-18T00:18:11.568Z,73.19
2019-01-18T00:19:15.728Z,73.42
2019-01-18T00:20:19.863Z,73.38
2019-01-18T00:21:24.102Z,73.28
2019-01-18T00:22:28.163Z,73.55
2019-01-18T00:23:32.379Z,73.46
2019-01-18T00:24:36.527Z,73.35
2019-01-18T00:25:40.670Z,73.61
2019-01-18T00:26:44.828Z,73.46
2019-01-18T00:27:48.984Z,73.29
2019-01-18T00:28:53.040Z,73.71
2019-01-18T00:29:57.159Z,73.15
2019-01-18T00:31:01.275Z,73.66
2019-01-18T00:32:05.479Z,73.48
2019-01-18T00:33:09.620Z,73.73
2019-01-18T00:34:13.762Z,74.10
2019-01-18T00:35:17.913Z,74.40
2019-01-18T00:36:22.058Z,74.33
2019-01-18T00:37:26.103Z,74.15
2019-01-18T00:38:30.213Z,74.06
2019-01-18T00:39:34.399Z,74.15
2019-01-18T00:40:38.589Z,73.92
2019-01-18T00:41:42.744Z,74.14
2019-01-18T00:42:46.911Z,73.58
2019-01-18T00:43:51.070Z,73.64
2019-01-18T00:44:55.133Z,73.76
2019-01-18T00:45:59.388Z,73.89
2019-01-18T00:47:03.516Z,73.81
2019-01-18T00:48:07.685Z,73.85
2019-01-18T00:49:11.823Z,73.52
2019-01-18T00:50:15.985Z,72.97
2019-01-18T00:51:20.051Z,72.95
2019-01-18T00:52:24.186Z,72.92
2019-01-18T00:53:28.418Z,73.43
2019-01-18T00:54:32.483Z,72.87
2019-01-18T00:55:36.682Z,73.17
2019-01-18T00:56:40.793Z,73.29
2019-01-18T00:57:44.874Z,73.03
2019-01-18T00:58:49.093Z,72.70
2019-01-18T00:59:53.234Z,72.84
2019-01-18T01:00:57.406Z,72.74
2019-01-18T01:02:01.451Z,73.18
2019-01-18T01:03:06.555Z,73.31
2019-01-18T01:04:10.328Z,72.36
2019-01-18T01:05:14.510Z,72.94
2019-01-18T01:06:18.651Z,72.10
2019-01-18T01:07:22.698Z,72.06
2019-01-18T01:08:26.890Z,71.43
2019-01-18T01:09:31.073Z,71.34
2019-01-18T01:10:35.234Z,71.09
2019-01-18T01:11:39.402Z,71.61
2019-01-18T01:12:43.455Z,71.27
2019-01-18T01:13:47.658Z,70.19
2019-01-18T01:14:51.870Z,70.43
2019-01-18T01:15:55.915Z,70.99
2019-01-18T01:17:00.101Z,70.33
2019-01-18T01:18:04.214Z,70.58
2019-01-18T01:19:08.389Z,69.98
2019-01-18T01:20:12.438Z,70.59
2019-01-18T01:21:16.630Z,70.75
2019-01-18T01:22:20.792Z,70.69
2019-01-18T01:23:24.850Z,69.80
2019-01-18T01:24:29.059Z,70.42
2019-01-18T01:25:33.232Z,70.60
2019-01-18T01:26:37.302Z,70.88
2019-01-18T01:27:41.512Z,71.27
2019-01-18T01:28:45.673Z,70.38
2019-01-18T01:29:49.752Z,70.13
2019-01-18T01:30:53.965Z,69.89
2019-01-18T01:31:58.019Z,70.22
2019-01-18T01:33:02.288Z,69.58
2019-01-18T01:34:06.299Z,70.27
2019-01-18T01:35:10.507Z,69.07
2019-01-18T01:36:17.654Z,69.72
2019-01-18T01:37:20.893Z,70.56
2019-01-18T01:38:24.936Z,70.15
2019-01-18T01:39:29.151Z,70.13
2019-01-18T01:40:33.198Z,70.46
2019-01-18T01:41:37.374Z,69.76
2019-01-18T01:42:41.537Z,70.49
2019-01-18T01:43:45.698Z,69.71
2019-01-18T01:44:49.887Z,69.66
2019-01-18T01:45:54.009Z,69.86
2019-01-18T01:46:58.088Z,69.20
2019-01-18T01:48:02.308Z,69.31
2019-01-18T01:49:06.350Z,69.30
2019-01-18T01:50:10.445Z,69.75
2019-01-18T01:51:14.530Z,68.83
2019-01-18T01:52:18.670Z,69.58
2019-01-18T01:53:22.890Z,69.22
2019-01-18T01:54:26.985Z,69.19
2019-01-18T01:55:31.080Z,68.71
2019-01-18T01:56:35.153Z,68.88
2019-01-18T01:57:39.279Z,69.38
2019-01-18T01:58:43.370Z,68.96
2019-01-18T01:59:49.969Z,69.45
2019-01-18T02:00:51.652Z,68.92
2019-01-18T02:01:55.767Z,68.67
2019-01-18T02:02:59.846Z,68.88
2019-01-18T02:04:03.943Z,69.08
2019-01-18T02:05:08.065Z,68.22
2019-01-18T02:06:12.264Z,68.88
2019-01-18T02:07:16.338Z,68.75
2019-01-18T02:08:20.467Z,68.27
2019-01-18T02:09:24.649Z,67.94
2019-01-18T02:10:28.785Z,68.25
2019-01-18T02:11:32.873Z,68.55
2019-01-18T02:12:36.965Z,68.06
2019-01-18T02:13:41.091Z,67.72
2019-01-18T02:14:45.196Z,67.91
2019-01-18T02:15:49.367Z,68.03
2019-01-18T02:16:53.394Z,68.51
2019-01-18T02:17:57.625Z,67.97
2019-01-18T02:19:01.758Z,68.58
2019-01-18T02:20:05.801Z,68.92
2019-01-18T02:21:09.987Z,68.73
2019-01-18T02:22:14.122Z,69.37
2019-01-18T02:23:18.169Z,68.77
2019-01-18T02:24:22.375Z,68.93
2019-01-18T02:25:26.395Z,69.21
2019-01-18T02:26:30.594Z,69.34
2019-01-18T02:27:34.659Z,69.03
2019-01-18T02:28:38.795Z,69.24
2019-01-18T02:29:42.888Z,69.95
2019-01-18T02:30:46.999Z,69.70
2019-01-18T02:31:51.110Z,69.92
2019-01-18T02:32:55.213Z,69.59
2019-01-18T02:33:59.345Z,69.29
2019-01-18T02:35:03.575Z,69.88
2019-01-18T02:36:07.654Z,69.66
2019-01-18T02:37:11.856Z,69.64
2019-01-18T02:38:15.922Z,69.89
2019-01-18T02:39:20.155Z,69.03
2019-01-18T02:40:24.292Z,69.22
2019-01-18T02:41:28.346Z,69.51
2019-01-18T02:42:32.548Z,69.48
2019-01-18T02:43:36.648Z,69.50
2019-01-18T02:44:40.881Z,69.11
2019-01-18T02:45:44.948Z,69.59
2019-01-18T02:46:49.054Z,68.87
2019-01-18T02:47:53.177Z,68.86
2019-01-18T02:48:57.310Z,69.34
2019-01-18T02:50:01.417Z,69.06
2019-01-18T02:51:05.513Z,69.22
2019-01-18T02:52:09.729Z,69.33
2019-01-18T02:53:13.771Z,68.44
2019-01-18T02:54:18.015Z,68.94
2019-01-18T02:55:28.852Z,69.37
2019-01-18T02:56:26.330Z,69.01
2019-01-18T02:57:30.508Z,68.98
2019-01-18T02:58:34.632Z,69.71
2019-01-18T02:59:38.747Z,69.69
2019-01-18T03:00:42.889Z,69.70
2019-01-18T03:01:47.028Z,69.86
2019-01-18T03:02:51.147Z,69.84
2019-01-18T03:03:55.301Z,70.02
2019-01-18T03:04:59.373Z,70.37
2019-01-18T03:06:03.570Z,70.12
2019-01-18T03:07:07.655Z,70.42
2019-01-18T03:08:11.738Z,70.51
2019-01-18T03:09:15.852Z,70.83
2019-01-18T03:10:19.949Z,70.94
2019-01-18T03:11:24.068Z,70.61
2019-01-18T03:12:28.206Z,70.68
2019-01-18T03:13:32.277Z,70.32
2019-01-18T03:14:36.473Z,71.00
2019-01-18T03:15:40.519Z,71.08
2019-01-18T03:16:44.714Z,70.94
2019-01-18T03:17:48.882Z,71.31
2019-01-18T03:18:52.965Z,71.10
2019-01-18T03:19:57.153Z,71.33
2019-01-18T03:21:04.324Z,70.86
2019-01-18T03:22:07.551Z,70.67
2019-01-18T03:23:11.641Z,70.15
2019-01-18T03:24:15.845Z,70.07
2019-01-18T03:25:19.904Z,70.37
2019-01-18T03:26:24.091Z,70.54
2019-01-18T03:27:28.305Z,70.25
2019-01-18T03:28:32.358Z,69.80
2019-01-18T03:29:36.498Z,70.06
2019-01-18T03:30:40.704Z,70.33
2019-01-18T03:31:44.871Z,70.34
2019-01-18T03:32:48.969Z,70.25
2019-01-18T03:33:53.089Z,70.16
2019-01-18T03:34:57.251Z,69.78
2019-01-18T03:36:01.407Z,70.04
2019-01-18T03:37:05.526Z,70.12
2019-01-18T03:38:09.600Z,70.36
2019-01-18T03:39:13.801Z,70.36
2019-01-18T03:40:17.964Z,70.50
2019-01-18T03:41:22.145Z,70.39
2019-01-18T03:42:26.277Z,70.29
2019-01-18T03:43:30.335Z,70.50
2019-01-18T03:44:34.516Z,70.55
2019-01-18T03:45:38.540Z,70.45
2019-01-18T03:46:43.686Z,70.51
2019-01-18T03:47:47.428Z,70.45
2019-01-18T03:48:51.454Z,70.60
2019-01-18T03:49:55.625Z,70.75
2019-01-18T03:50:59.746Z,70.69
2019-01-18T03:52:03.818Z,70.72
2019-01-18T03:53:08.011Z,70.85
2019-01-18T03:54:12.049Z,70.99
2019-01-18T03:55:16.158Z,71.10
2019-01-18T03:56:20.280Z,71.18
2019-01-18T03:57:24.497Z,71.29
2019-01-18T03:58:28.564Z,71.32
2019-01-18T03:59:32.663Z,71.45
2019-01-18T04:00:36.767Z,71.48
2019-01-18T04:01:40.828Z,71.49
2019-01-18T04:02:45.035Z,71.63
2019-01-18T04:03:49.179Z,71.63
2019-01-18T04:04:53.182Z,71.75
2019-01-18T04:05:57.353Z,71.80
2019-01-18T04:07:01.478Z,71.79
2019-01-18T04:08:05.650Z,71.83
2019-01-18T04:09:09.681Z,71.85
2019-01-18T04:10:13.798Z,72.06
2019-01-18T04:11:17.901Z,71.96
2019-01-18T04:12:22.959Z,71.95
2019-01-18T04:13:26.780Z,72.13
2019-01-18T04:14:30.881Z,72.22
2019-01-18T04:15:34.934Z,72.22
2019-01-18T04:16:39.035Z,72.33
2019-01-18T04:17:43.159Z,72.26
2019-01-18T04:18:47.413Z,72.36
2019-01-18T04:19:51.482Z,72.27
2019-01-18T04:20:55.717Z,72.38
2019-01-18T04:21:59.806Z,72.44
2019-01-18T04:23:03.980Z,72.47
2019-01-18T04:24:08.096Z,72.53
2019-01-18T04:25:12.277Z,72.62
2019-01-18T04:26:16.405Z,72.61
2019-01-18T04:27:20.538Z,72.76
2019-01-18T04:28:24.684Z,72.76
2019-01-18T04:29:28.837Z,72.88
2019-01-18T04:30:33.825Z,72.75
2019-01-18T04:31:37.173Z,72.62
2019-01-18T04:32:41.313Z,72.84
2019-01-18T04:33:45.462Z,72.92
2019-01-18T04:34:49.621Z,73.04
2019-01-18T04:35:53.775Z,73.15
2019-01-18T04:36:57.989Z,73.19
2019-01-18T04:38:05.081Z,73.18
2019-01-18T04:39:08.227Z,73.19
2019-01-18T04:40:12.380Z,73.31
2019-01-18T04:41:19.520Z,73.41
2019-01-18T04:42:22.643Z,73.31
2019-01-18T04:43:26.718Z,73.53
2019-01-18T04:44:30.886Z,73.55
2019-01-18T04:45:35.030Z,73.60
2019-01-18T04:46:39.181Z,73.65
2019-01-18T04:47:43.295Z,73.73
2019-01-18T04:48:47.461Z,73.87
2019-01-18T04:49:51.651Z,74.00
2019-01-18T04:50:55.682Z,73.96
2019-01-18T04:51:59.779Z,73.89
2019-01-18T04:53:03.946Z,74.17
2019-01-18T04:54:08.147Z,74.24
2019-01-18T04:55:12.265Z,74.35
2019-01-18T04:56:16.335Z,74.30
2019-01-18T04:57:20.444Z,74.31
2019-01-18T04:58:26.609Z,74.35
2019-01-18T04:59:29.336Z,74.47
2019-01-18T05:00:40.187Z,74.45
2019-01-18T05:01:37.425Z,74.40
2019-01-18T05:02:41.543Z,74.46
2019-01-18T05:03:45.671Z,74.71
2019-01-18T05:04:49.845Z,74.83
2019-01-18T05:05:53.919Z,74.90
2019-01-18T05:06:58.028Z,74.97
2019-01-18T05:08:02.225Z,74.92
2019-01-18T05:09:06.238Z,75.08
2019-01-18T05:10:10.445Z,75.13
2019-01-18T05:11:14.493Z,75.25
2019-01-18T05:12:18.659Z,75.34
2019-01-18T05:13:22.817Z,75.39
2019-01-18T05:14:26.944Z,75.25
2019-01-18T05:15:31.911Z,75.39
2019-01-18T05:16:35.717Z,75.40
2019-01-18T05:17:39.759Z,75.58
2019-01-18T05:18:43.852Z,75.46
2019-01-18T05:19:48.101Z,75.37
2019-01-18T05:20:52.121Z,75.42
2019-01-18T05:21:56.337Z,75.36
2019-01-18T05:23:00.368Z,75.50
2019-01-18T05:24:04.570Z,75.43
2019-01-18T05:25:08.574Z,75.36
2019-01-18T05:26:12.824Z,75.43
2019-01-18T05:27:16.864Z,75.23
2019-01-18T05:28:21.102Z,75.24
2019-01-18T05:29:25.133Z,75.28
2019-01-18T05:30:29.253Z,75.25
2019-01-18T05:31:33.405Z,75.27
2019-01-18T05:32:37.467Z,75.29
2019-01-18T05:33:41.602Z,75.28
2019-01-18T05:34:45.753Z,75.28
2019-01-18T05:35:49.720Z,75.38
2019-01-18T05:36:53.987Z,75.28
2019-01-18T05:37:58.155Z,75.25
2019-01-18T05:39:02.307Z,75.31
2019-01-18T05:40:06.479Z,75.35
2019-01-18T05:41:10.641Z,75.43
2019-01-18T05:42:14.791Z,75.46
2019-01-18T05:43:21.997Z,75.45
2019-01-18T05:44:25.064Z,75.49
2019-01-18T05:45:29.284Z,75.50
2019-01-18T05:46:33.294Z,75.49
2019-01-18T05:47:37.524Z,75.50
2019-01-18T05:48:41.559Z,75.47
2019-01-18T05:49:45.663Z,75.43
2019-01-18T05:50:49.821Z,75.40
2019-01-18T05:51:54.023Z,75.20
2019-01-18T05:52:58.177Z,75.17
2019-01-18T05:54:02.182Z,75.23
2019-01-18T05:55:06.406Z,75.26
2019-01-18T05:56:10.563Z,75.35
2019-01-18T05:57:14.714Z,75.67
2019-01-18T05:58:18.849Z,75.78
2019-01-18T05:59:23.009Z,75.88
2019-01-18T06:00:27.195Z,75.98
2019-01-18T06:01:31.283Z,76.04
2019-01-18T06:02:35.426Z,75.95
2019-01-18T06:03:39.539Z,76.15
2019-01-18T06:04:43.670Z,76.28
2019-01-18T06:05:47.746Z,76.36
2019-01-18T06:06:51.870Z,76.23
2019-01-18T06:07:55.993Z,76.30
2019-01-18T06:09:00.120Z,76.34
2019-01-18T06:10:04.238Z,76.52
2019-01-18T06:11:08.369Z,76.53
2019-01-18T06:12:12.483Z,76.78
2019-01-18T06:13:16.629Z,76.98
2019-01-18T06:14:20.657Z,76.81
2019-01-18T06:15:24.843Z,77.07
2019-01-18T06:16:28.888Z,77.17
2019-01-18T06:17:32.977Z,77.30
2019-01-18T06:18:37.067Z,77.51
2019-01-18T06:19:41.268Z,77.73
2019-01-18T06:20:45.355Z,77.72
2019-01-18T06:21:49.469Z,78.04
2019-01-18T06:22:53.527Z,77.83
2019-01-18T06:23:57.582Z,78.07
2019-01-18T06:25:01.752Z,78.00
2019-01-18T06:26:05.835Z,78.22
2019-01-18T06:27:09.931Z,78.36
2019-01-18T06:28:13.924Z,78.27
2019-01-18T06:29:18.134Z,77.93
2019-01-18T06:30:22.299Z,78.16
2019-01-18T06:31:26.409Z,78.08
2019-01-18T06:32:30.329Z,77.80
2019-01-18T06:33:34.496Z,78.15
2019-01-18T06:34:38.661Z,78.15
2019-01-18T06:35:42.816Z,78.36
2019-01-18T06:36:46.937Z,78.59
2019-01-18T06:37:50.951Z,78.79
2019-01-18T06:38:55.159Z,78.26
2019-01-18T06:39:59.299Z,78.53
2019-01-18T06:41:03.424Z,78.95
2019-01-18T06:42:07.550Z,78.82
2019-01-18T06:43:11.687Z,78.84
2019-01-18T06:44:15.800Z,78.94
2019-01-18T06:45:19.957Z,79.16
2019-01-18T06:46:24.095Z,79.10
2019-01-18T06:47:28.027Z,79.64
2019-01-18T06:48:32.262Z,79.69
2019-01-18T06:49:36.415Z,79.99
2019-01-18T06:50:40.339Z,80.14
2019-01-18T06:51:44.575Z,79.84
2019-01-18T06:52:48.681Z,79.47
2019-01-18T06:53:52.809Z,79.40
2019-01-18T06:54:56.783Z,79.08
2019-01-18T06:56:00.896Z,79.26
2019-01-18T06:57:05.057Z,79.01
2019-01-18T06:58:09.158Z,78.91
2019-01-18T06:59:13.284Z,78.97
2019-01-18T07:00:17.364Z,78.70
2019-01-18T07:01:21.552Z,78.54
2019-01-18T07:02:25.682Z,78.69
2019-01-18T07:03:30.648Z,78.75
2019-01-18T07:04:40.475Z,78.61
2019-01-18T07:05:38.574Z,78.48
2019-01-18T07:06:42.558Z,78.60
2019-01-18T07:07:46.765Z,78.54
2019-01-18T07:08:50.887Z,78.75
2019-01-18T07:09:54.888Z,78.73
2019-01-18T07:10:59.070Z,78.59
2019-01-18T07:12:03.055Z,78.77
2019-01-18T07:13:07.163Z,78.64
2019-01-18T07:14:11.292Z,78.67
2019-01-18T07:15:15.462Z,78.82
2019-01-18T07:16:19.589Z,78.95
2019-01-18T07:17:23.620Z,79.03
2019-01-18T07:18:27.696Z,79.11
2019-01-18T07:19:31.873Z,79.29
2019-01-18T07:20:35.828Z,79.05
2019-01-18T07:21:39.993Z,79.14
2019-01-18T07:22:44.199Z,79.20
2019-01-18T07:23:48.129Z,79.09
2019-01-18T07:24:52.247Z,79.25
2019-01-18T07:25:56.428Z,78.97
2019-01-18T07:27:00.484Z,79.28
2019-01-18T07:28:04.613Z,79.19
2019-01-18T07:29:08.628Z,79.25
2019-01-18T07:30:12.823Z,79.31
2019-01-18T07:31:16.913Z,79.11
2019-01-18T07:32:20.988Z,79.30
2019-01-18T07:33:25.172Z,79.37
2019-01-18T07:34:29.327Z,79.42
2019-01-18T07:35:33.314Z,79.33
2019-01-18T07:36:37.426Z,79.63
2019-01-18T07:37:41.568Z,79.39
2019-01-18T07:38:45.681Z,79.44
2019-01-18T07:39:49.685Z,79.34
2019-01-18T07:40:53.812Z,79.44
2019-01-18T07:41:57.940Z,79.58
2019-01-18T07:43:02.880Z,79.66
2019-01-18T07:44:06.631Z,79.72
2019-01-18T07:45:10.647Z,79.81
2019-01-18T07:46:14.810Z,79.73
2019-01-18T07:47:18.960Z,79.89
2019-01-18T07:48:23.885Z,79.74
2019-01-18T07:49:27.679Z,79.81
2019-01-18T07:50:31.798Z,79.74
2019-01-18T07:51:35.965Z,79.86
2019-01-18T07:52:40.084Z,79.86
2019-01-18T07:53:44.226Z,79.64
2019-01-18T07:54:48.224Z,79.60
2019-01-18T07:55:52.330Z,79.52
2019-01-18T07:56:56.523Z,79.67
2019-01-18T07:58:00.642Z,79.62
2019-01-18T07:59:04.668Z,79.68
2019-01-18T08:00:08.729Z,79.57
2019-01-18T08:01:12.937Z,79.65
2019-01-18T08:02:17.011Z,79.70
2019-01-18T08:03:21.954Z,79.75
2019-01-18T08:04:25.634Z,79.83
2019-01-18T08:05:29.697Z,79.69
2019-01-18T08:06:33.791Z,79.74
2019-01-18T08:07:37.966Z,79.66
2019-01-18T08:08:42.079Z,79.51
2019-01-18T08:09:46.138Z,79.47
2019-01-18T08:10:51.078Z,79.49
2019-01-18T08:11:54.796Z,79.49
2019-01-18T08:12:58.969Z,79.40
2019-01-18T08:14:03.091Z,79.38
2019-01-18T08:15:07.106Z,79.27
2019-01-18T08:16:12.129Z,79.27
2019-01-18T08:17:15.824Z,79.24
2019-01-18T08:18:20.032Z,79.19
2019-01-18T08:19:24.161Z,79.33
2019-01-18T08:20:28.288Z,79.23
2019-01-18T08:21:32.462Z,79.27
2019-01-18T08:22:36.614Z,79.17
2019-01-18T08:23:40.733Z,79.26
2019-01-18T08:24:44.849Z,79.32
2019-01-18T08:25:48.992Z,79.37
2019-01-18T08:26:53.113Z,79.25
2019-01-18T08:27:57.252Z,79.31
2019-01-18T08:29:01.387Z,79.36
2019-01-18T08:30:05.506Z,79.42
2019-01-18T08:31:09.663Z,79.40
2019-01-18T08:32:13.811Z,79.84
2019-01-18T08:33:17.949Z,79.58
2019-01-18T08:34:21.948Z,79.49
2019-01-18T08:35:26.158Z,79.46
2019-01-18T08:36:30.331Z,79.95
2019-01-18T08:37:34.525Z,80.17
2019-01-18T08:38:38.656Z,79.90
2019-01-18T08:39:42.779Z,80.14
2019-01-18T08:40:47.674Z,80.21
2019-01-18T08:41:51.489Z,80.55
2019-01-18T08:42:55.596Z,80.75
2019-01-18T08:43:59.642Z,80.69
2019-01-18T08:45:03.714Z,80.48
2019-01-18T08:46:07.882Z,80.53
2019-01-18T08:47:12.016Z,81.14
2019-01-18T08:48:16.155Z,81.03
2019-01-18T08:49:20.169Z,80.75
2019-01-18T08:50:24.375Z,80.55
2019-01-18T08:51:28.427Z,80.42
2019-01-18T08:52:32.540Z,80.39
2019-01-18T08:53:36.660Z,80.49
2019-01-18T08:54:41.648Z,80.28
2019-01-18T08:55:45.420Z,80.58
2019-01-18T08:56:52.571Z,80.34
2019-01-18T08:57:55.779Z,80.50
2019-01-18T08:58:59.830Z,80.34
2019-01-18T09:00:03.930Z,80.66
2019-01-18T09:01:08.002Z,80.77
2019-01-18T09:02:12.238Z,80.83
2019-01-18T09:03:16.359Z,80.55
2019-01-18T09:04:20.512Z,80.55
2019-01-18T09:05:24.551Z,80.86
2019-01-18T09:06:28.709Z,80.75
2019-01-18T09:07:32.789Z,80.84
2019-01-18T09:08:36.973Z,80.59
2019-01-18T09:09:41.089Z,80.53
2019-01-18T09:10:46.556Z,80.61
2019-01-18T09:11:49.258Z,80.42
2019-01-18T09:12:53.355Z,80.38
2019-01-18T09:13:59.906Z,80.33
2019-01-18T09:15:01.706Z,80.37
2019-01-18T09:16:05.840Z,80.48
2019-01-18T09:17:10.010Z,80.25
2019-01-18T09:18:14.047Z,80.17
2019-01-18T09:19:18.230Z,80.27
2019-01-18T09:20:22.287Z,80.23
2019-01-18T09:21:26.437Z,80.21
2019-01-18T09:22:30.531Z,80.08
2019-01-18T09:23:34.715Z,80.36
2019-01-18T09:24:38.841Z,80.28
2019-01-18T09:25:42.967Z,80.48
2019-01-18T09:26:47.053Z,80.34
2019-01-18T09:27:51.291Z,80.51
2019-01-18T09:28:55.347Z,80.49
2019-01-18T09:29:59.534Z,80.39
2019-01-18T09:31:03.682Z,80.37
2019-01-18T09:32:07.725Z,80.36
2019-01-18T09:33:11.858Z,80.44
2019-01-18T09:34:16.056Z,80.49
2019-01-18T09:35:20.202Z,80.34
2019-01-18T09:36:24.239Z,80.25
2019-01-18T09:37:28.476Z,80.18
2019-01-18T09:38:32.654Z,80.11
2019-01-18T09:39:36.687Z,79.92
2019-01-18T09:40:40.935Z,79.83
2019-01-18T09:41:45.087Z,79.78
2019-01-18T09:42:49.443Z,79.58
2019-01-18T09:43:53.407Z,79.55
2019-01-18T09:44:57.604Z,79.34
2019-01-18T09:46:01.768Z,79.38
2019-01-18T09:47:05.824Z,79.43
2019-01-18T09:48:10.053Z,79.33
2019-01-18T09:49:14.170Z,79.12
2019-01-18T09:50:18.351Z,79.19
2019-01-18T09:51:23.299Z,79.32
2019-01-18T09:52:27.128Z,79.09
2019-01-18T09:53:32.092Z,78.80
2019-01-18T09:54:35.911Z,78.29
2019-01-18T09:55:40.025Z,78.65
2019-01-18T09:56:44.102Z,78.72
2019-01-18T09:57:48.355Z,78.49
2019-01-18T09:58:52.486Z,78.08
2019-01-18T09:59:56.555Z,77.74
2019-01-18T10:01:00.764Z,77.97
2019-01-18T10:02:04.836Z,77.96
2019-01-18T10:03:09.073Z,78.32
2019-01-18T10:04:13.095Z,78.49
2019-01-18T10:05:17.295Z,78.70
2019-01-18T10:06:21.458Z,78.84
2019-01-18T10:07:25.483Z,78.50
2019-01-18T10:08:29.722Z,78.60
2019-01-18T10:09:33.824Z,78.10
2019-01-18T10:10:38.005Z,78.28
2019-01-18T10:11:42.009Z,78.40
2019-01-18T10:12:46.188Z,78.42
2019-01-18T10:13:50.398Z,78.37
2019-01-18T10:14:54.397Z,78.07
2019-01-18T10:15:58.533Z,76.80
2019-01-18T10:17:02.696Z,77.20
2019-01-18T10:18:06.724Z,77.46
2019-01-18T10:19:11.098Z,77.51
2019-01-18T10:20:15.208Z,76.55
2019-01-18T10:21:19.298Z,77.10
2019-01-18T10:22:23.388Z,77.37
2019-01-18T10:23:27.642Z,76.65
2019-01-18T10:24:31.786Z,77.16
2019-01-18T10:25:36.738Z,76.77
2019-01-18T10:26:40.548Z,76.79
2019-01-18T10:27:44.693Z,77.15
2019-01-18T10:28:49.127Z,76.29
2019-01-18T10:29:53.133Z,76.63
2019-01-18T10:30:57.295Z,76.29
2019-01-18T10:32:01.418Z,76.68
2019-01-18T10:33:05.499Z,76.39
2019-01-18T10:34:09.664Z,76.33
2019-01-18T10:35:13.745Z,76.03
2019-01-18T10:36:17.972Z,76.30
2019-01-18T10:37:22.105Z,76.61
2019-01-18T10:38:26.279Z,76.54
2019-01-18T10:39:30.458Z,76.49
2019-01-18T10:40:34.473Z,76.31
2019-01-18T10:41:38.666Z,76.64
2019-01-18T10:42:42.844Z,76.80
2019-01-18T10:43:47.031Z,76.89
2019-01-18T10:44:51.183Z,75.20
2019-01-18T10:45:55.207Z,76.12
2019-01-18T10:46:59.435Z,75.78
2019-01-18T10:48:03.902Z,76.07
2019-01-18T10:49:07.733Z,75.60
2019-01-18T10:50:11.862Z,76.21
2019-01-18T10:51:16.108Z,75.70
2019-01-18T10:52:20.272Z,75.16
2019-01-18T10:53:24.407Z,74.93
2019-01-18T10:54:28.542Z,75.51
2019-01-18T10:55:32.586Z,75.11
2019-01-18T10:56:36.706Z,74.79
2019-01-18T10:57:40.930Z,74.00
2019-01-18T10:58:45.086Z,75.10
2019-01-18T10:59:49.149Z,75.21
2019-01-18T11:00:53.376Z,74.22
2019-01-18T11:02:03.396Z,74.23
2019-01-18T11:03:01.707Z,75.07
2019-01-18T11:04:05.871Z,74.90
2019-01-18T11:05:10.023Z,74.95
2019-01-18T11:06:14.193Z,75.03
2019-01-18T11:07:18.326Z,75.12
2019-01-18T11:08:22.482Z,74.48
2019-01-18T11:09:26.659Z,73.37
2019-01-18T11:10:30.798Z,74.20
2019-01-18T11:11:34.956Z,73.73
2019-01-18T11:12:38.937Z,73.92
2019-01-18T11:13:43.205Z,73.75
2019-01-18T11:14:47.289Z,74.47
2019-01-18T11:15:51.496Z,74.44
2019-01-18T11:16:55.709Z,74.91
2019-01-18T11:17:59.859Z,74.27
2019-01-18T11:19:03.944Z,73.43
2019-01-18T11:20:08.200Z,72.97
2019-01-18T11:21:12.283Z,73.50
2019-01-18T11:22:16.556Z,72.38
2019-01-18T11:23:20.633Z,73.54
2019-01-18T11:24:24.786Z,72.19
2019-01-18T11:25:32.033Z,71.06
2019-01-18T11:26:33.130Z,71.83
2019-01-18T11:27:37.353Z,73.02
2019-01-18T11:28:41.362Z,71.95
2019-01-18T11:29:45.572Z,72.34
2019-01-18T11:30:49.677Z,71.60
2019-01-18T11:31:53.941Z,72.45
2019-01-18T11:32:58.085Z,72.68
2019-01-18T11:34:02.257Z,71.81
2019-01-18T11:35:06.444Z,71.94
2019-01-18T11:36:10.495Z,71.49
2019-01-18T11:37:14.737Z,70.91
2019-01-18T11:38:18.747Z,72.29
2019-01-18T11:39:22.922Z,72.36
2019-01-18T11:40:27.076Z,72.69
2019-01-18T11:41:31.285Z,72.55
2019-01-18T11:42:35.362Z,72.23
2019-01-18T11:43:39.607Z,72.20
2019-01-18T11:44:43.776Z,72.06
2019-01-18T11:45:47.944Z,72.04
2019-01-18T11:46:52.124Z,72.69
2019-01-18T11:47:56.249Z,72.92
2019-01-18T11:49:00.412Z,72.61
2019-01-18T11:50:04.575Z,72.42
2019-01-18T11:51:08.566Z,72.65
2019-01-18T11:52:12.854Z,72.76
2019-01-18T11:53:17.039Z,73.30
2019-01-18T11:54:21.121Z,72.16
2019-01-18T11:55:25.159Z,72.54
2019-01-18T11:56:29.399Z,72.75
2019-01-18T11:57:33.480Z,73.19
2019-01-18T11:58:37.636Z,73.44
2019-01-18T11:59:41.833Z,73.16
2019-01-18T12:00:45.927Z,73.31
2019-01-18T12:01:50.155Z,73.49
2019-01-18T12:02:54.236Z,72.55
2019-01-18T12:03:58.475Z,72.03
2019-01-18T12:05:02.657Z,71.87
2019-01-18T12:06:06.826Z,72.03
2019-01-18T12:07:11.015Z,71.93
2019-01-18T12:08:15.156Z,72.39
2019-01-18T12:09:19.432Z,73.10
2019-01-18T12:10:23.470Z,72.40
2019-01-18T12:11:27.643Z,72.34
2019-01-18T12:12:31.865Z,72.12
2019-01-18T12:13:36.079Z,72.66
2019-01-18T12:14:40.217Z,72.06
2019-01-18T12:15:44.410Z,72.64
2019-01-18T12:16:48.620Z,72.96
2019-01-18T12:17:52.683Z,72.52
2019-01-18T12:18:56.944Z,72.32
2019-01-18T12:20:01.122Z,72.67
2019-01-18T12:21:08.259Z,73.02
2019-01-18T12:22:11.447Z,73.06
2019-01-18T12:23:15.627Z,72.75
2019-01-18T12:24:19.719Z,73.19
2019-01-18T12:25:23.918Z,73.31
2019-01-18T12:26:27.997Z,73.67
2019-01-18T12:27:32.213Z,73.14
2019-01-18T12:28:36.376Z,73.08
2019-01-18T12:29:40.468Z,73.39
2019-01-18T12:30:44.659Z,73.31
2019-01-18T12:31:48.864Z,73.18
2019-01-18T12:32:52.931Z,72.69
2019-01-18T12:33:57.219Z,72.12
2019-01-18T12:35:01.375Z,72.72
2019-01-18T12:36:05.557Z,72.79
2019-01-18T12:37:09.733Z,71.93
2019-01-18T12:38:13.828Z,72.34
2019-01-18T12:39:18.114Z,72.16
2019-01-18T12:40:22.157Z,72.73
2019-01-18T12:41:26.357Z,73.39
2019-01-18T12:42:30.498Z,73.37
2019-01-18T12:43:34.656Z,73.64
2019-01-18T12:44:38.849Z,72.14
2019-01-18T12:45:42.935Z,71.90
2019-01-18T12:46:47.073Z,72.36
2019-01-18T12:47:51.297Z,73.17
2019-01-18T12:48:55.457Z,72.29
2019-01-18T12:49:59.681Z,71.69
2019-01-18T12:51:03.874Z,72.71
2019-01-18T12:52:08.091Z,72.61
2019-01-18T12:53:12.292Z,70.90
2019-01-18T12:54:16.493Z,70.71
2019-01-18T12:55:20.667Z,71.54
2019-01-18T12:56:24.861Z,70.70
2019-01-18T12:57:28.978Z,71.32
2019-01-18T12:58:33.213Z,72.03
2019-01-18T12:59:37.291Z,71.49
2019-01-18T13:00:41.553Z,70.20
2019-01-18T13:01:45.603Z,70.44
2019-01-18T13:02:49.832Z,70.91
2019-01-18T13:03:53.996Z,71.44
2019-01-18T13:04:58.222Z,70.95
2019-01-18T13:06:02.310Z,70.43
2019-01-18T13:07:06.557Z,71.44
2019-01-18T13:08:10.671Z,70.35
2019-01-18T13:09:14.906Z,70.09
2019-01-18T13:10:18.967Z,70.05
2019-01-18T13:11:23.171Z,71.30
2019-01-18T13:12:27.364Z,71.29
2019-01-18T13:13:31.584Z,70.72
2019-01-18T13:14:35.793Z,71.06
2019-01-18T13:15:39.915Z,70.75
2019-01-18T13:16:44.052Z,70.51
2019-01-18T13:17:48.304Z,69.53
2019-01-18T13:18:52.501Z,70.56
2019-01-18T13:19:56.730Z,70.45
2019-01-18T13:21:00.822Z,69.79
2019-01-18T13:22:05.039Z,69.30
2019-01-18T13:23:09.231Z,69.89
2019-01-18T13:24:13.308Z,69.54
2019-01-18T13:25:17.629Z,69.61
2019-01-18T13:26:21.786Z,69.93
2019-01-18T13:27:25.851Z,70.36
2019-01-18T13:28:30.099Z,70.47
2019-01-18T13:29:34.234Z,70.54
2019-01-18T13:30:38.501Z,69.63
2019-01-18T13:31:42.597Z,70.36
2019-01-18T13:32:46.851Z,70.82
2019-01-18T13:33:50.935Z,70.98
2019-01-18T13:34:55.079Z,70.02
2019-01-18T13:35:59.354Z,70.02
2019-01-18T13:37:03.440Z,70.32
2019-01-18T13:38:07.671Z,70.58
2019-01-18T13:39:11.821Z,70.33
2019-01-18T13:40:16.008Z,71.17
2019-01-18T13:41:20.114Z,70.64
2019-01-18T13:42:24.350Z,70.66
2019-01-18T13:43:28.505Z,70.87
2019-01-18T13:44:32.600Z,70.74
2019-01-18T13:45:36.832Z,70.84